createdAt,value
2022-11-13T00:01:38.848Z,228.33
2022-11-13T00:04:06.056Z,256.10
2022-11-13T00:06:33.132Z,208.87
2022-11-13T00:09:00.244Z,230.90
2022-11-13T00:11:27.343Z,207.40
2022-11-13T00:13:54.413Z,219.90
2022-11-13T00:16:22.260Z,196.27
2022-11-13T00:18:49.329Z,202.27
2022-11-13T00:21:20.072Z,189.23
2022-11-13T00:23:47.184Z,209.57
2022-11-13T00:26:15.242Z,247.77
2022-11-13T00:28:42.314Z,190.17
2022-11-13T00:31:09.872Z,225.83
2022-11-13T00:36:26.319Z,180.87
2022-11-13T00:38:54.097Z,178.47
2022-11-13T00:41:21.275Z,162.00
2022-11-13T00:43:48.396Z,157.63
2022-11-13T00:46:15.486Z,166.13
2022-11-13T00:48:42.574Z,158.73
2022-11-13T00:51:09.714Z,153.90
2022-11-13T00:53:36.831Z,154.93
2022-11-13T00:56:03.900Z,142.83
2022-11-13T00:58:31.229Z,146.23
2022-11-13T01:01:03.843Z,140.97
2022-11-13T01:03:30.916Z,170.67
2022-11-13T01:05:58.037Z,138.13
2022-11-13T01:08:25.370Z,157.43
2022-11-13T01:10:53.986Z,142.73
2022-11-13T01:13:21.305Z,135.57
2022-11-13T01:15:48.377Z,130.70
2022-11-13T01:18:15.442Z,139.30
2022-11-13T01:20:42.579Z,119.83
2022-11-13T01:23:09.701Z,106.43
2022-11-13T01:25:36.789Z,115.97
2022-11-13T01:28:04.050Z,129.57
2022-11-13T01:30:31.124Z,125.93
2022-11-13T01:32:58.204Z,126.40
2022-11-13T01:35:25.321Z,142.87
2022-11-13T01:37:52.392Z,165.50
2022-11-13T01:40:19.524Z,134.93
2022-11-13T01:42:46.671Z,169.50
2022-11-13T01:45:32.401Z,175.50
2022-11-13T01:47:59.716Z,163.20
2022-11-13T01:50:26.884Z,186.20
2022-11-13T01:52:53.949Z,182.90
2022-11-13T01:55:21.061Z,189.93
2022-11-13T01:57:48.118Z,177.97
2022-11-13T02:00:15.358Z,252.37
2022-11-13T02:02:42.489Z,189.50
2022-11-13T02:05:09.584Z,172.53
2022-11-13T02:07:36.671Z,177.93
2022-11-13T02:10:03.858Z,184.83
2022-11-13T02:12:30.957Z,204.37
2022-11-13T02:14:58.138Z,213.00
2022-11-13T02:17:27.222Z,252.30
2022-11-13T02:19:54.907Z,295.30
2022-11-13T02:22:40.755Z,281.90
2022-11-13T02:25:07.976Z,261.33
2022-11-13T02:27:37.108Z,263.17
2022-11-13T02:30:18.112Z,295.50
2022-11-13T02:32:47.749Z,276.43
2022-11-13T02:35:15.321Z,291.40
2022-11-13T02:37:42.669Z,228.50
2022-11-13T02:40:10.051Z,215.43
2022-11-13T02:42:37.169Z,204.27
2022-11-13T02:45:05.104Z,240.53
2022-11-13T02:47:32.328Z,172.07
2022-11-13T02:49:59.407Z,181.37
2022-11-13T02:52:26.565Z,178.03
2022-11-13T02:54:53.669Z,196.53
2022-11-13T02:57:20.910Z,226.83
2022-11-13T02:59:48.034Z,218.40
2022-11-13T03:02:15.109Z,206.67
2022-11-13T03:05:10.728Z,308.13
2022-11-13T03:07:29.355Z,210.37
2022-11-13T03:09:57.398Z,187.53
2022-11-13T03:12:24.483Z,151.67
2022-11-13T03:14:51.602Z,143.77
2022-11-13T03:17:18.672Z,174.10
2022-11-13T03:19:45.798Z,140.63
2022-11-13T03:22:12.898Z,130.30
2022-11-13T03:24:39.968Z,144.20
2022-11-13T03:27:07.049Z,137.17
2022-11-13T03:29:34.182Z,139.87
2022-11-13T03:32:03.121Z,131.23
2022-11-13T03:34:30.281Z,138.23
2022-11-13T03:36:57.405Z,128.23
2022-11-13T03:39:24.485Z,144.80
2022-11-13T03:41:51.575Z,154.43
2022-11-13T03:44:18.695Z,149.27
2022-11-13T03:46:45.764Z,137.00
2022-11-13T03:49:12.845Z,143.83
2022-11-13T03:51:39.951Z,208.30
2022-11-13T03:54:07.044Z,169.80
2022-11-13T03:56:34.140Z,173.17
2022-11-13T03:59:01.276Z,144.17
2022-11-13T04:01:28.384Z,135.57
2022-11-13T04:03:55.486Z,124.97
2022-11-13T04:06:22.601Z,116.63
2022-11-13T04:08:49.684Z,152.30
2022-11-13T04:11:16.800Z,138.60
2022-11-13T04:13:43.937Z,128.13
2022-11-13T04:16:11.017Z,135.00
2022-11-13T04:18:38.084Z,125.57
2022-11-13T04:21:05.474Z,126.37
2022-11-13T04:23:32.583Z,126.20
2022-11-13T04:25:59.747Z,115.40
2022-11-13T04:28:27.268Z,120.33
2022-11-13T04:30:54.904Z,118.10
2022-11-13T04:33:22.137Z,114.07
2022-11-13T04:35:49.305Z,180.47
2022-11-13T04:38:16.437Z,122.97
2022-11-13T04:40:43.560Z,112.23
2022-11-13T04:43:10.662Z,123.80
2022-11-13T04:45:37.849Z,128.40
2022-11-13T04:48:05.006Z,146.10
2022-11-13T04:50:32.211Z,172.27
2022-11-13T04:52:59.283Z,172.80
2022-11-13T04:55:26.391Z,144.77
2022-11-13T04:57:56.293Z,131.67
2022-11-13T05:00:23.537Z,166.33
2022-11-13T05:02:50.629Z,262.20
2022-11-13T05:05:17.840Z,277.63
2022-11-13T05:07:44.933Z,241.67
2022-11-13T05:10:12.069Z,168.50
2022-11-13T05:12:39.234Z,125.43
2022-11-13T05:15:06.699Z,92.77
2022-11-13T05:17:33.791Z,126.77
2022-11-13T05:20:00.937Z,124.87
2022-11-13T05:22:28.024Z,118.60
2022-11-13T05:24:55.096Z,116.13
2022-11-13T05:27:22.214Z,115.00
2022-11-13T05:29:49.314Z,149.07
2022-11-13T05:32:16.440Z,161.63
2022-11-13T05:34:43.542Z,149.23
2022-11-13T05:37:10.612Z,153.13
2022-11-13T05:39:37.759Z,119.53
2022-11-13T05:42:05.820Z,106.67
2022-11-13T05:44:32.945Z,96.03
2022-11-13T05:47:00.038Z,85.87
2022-11-13T05:49:27.172Z,74.27
2022-11-13T05:51:55.100Z,73.83
2022-11-13T05:54:22.192Z,65.53
2022-11-13T05:56:49.297Z,74.83
2022-11-13T05:59:16.370Z,63.43
2022-11-13T06:01:43.457Z,72.57
2022-11-13T06:04:10.613Z,76.93
2022-11-13T06:06:37.800Z,81.70
2022-11-13T06:09:05.275Z,88.90
2022-11-13T06:11:32.437Z,91.67
2022-11-13T06:13:59.685Z,93.63
2022-11-13T06:16:30.551Z,67.27
2022-11-13T06:18:58.469Z,86.63
2022-11-13T06:21:26.332Z,86.00
2022-11-13T06:23:53.409Z,81.27
2022-11-13T06:26:21.452Z,74.80
2022-11-13T06:28:48.720Z,76.97
2022-11-13T06:31:16.992Z,69.70
2022-11-13T06:33:44.381Z,70.27
2022-11-13T06:36:12.359Z,72.97
2022-11-13T06:38:39.796Z,79.07
2022-11-13T06:41:07.141Z,69.23
2022-11-13T06:43:34.309Z,75.47
2022-11-13T06:46:04.758Z,81.00
2022-11-13T06:48:31.950Z,76.87
2022-11-13T06:51:06.490Z,81.00
2022-11-13T06:53:33.697Z,101.93
2022-11-13T06:56:00.935Z,104.33
2022-11-13T06:58:28.346Z,96.13
2022-11-13T07:00:55.706Z,91.37
2022-11-13T07:03:25.051Z,67.70
2022-11-13T07:05:52.411Z,75.47
2022-11-13T07:08:19.620Z,78.37
2022-11-13T07:10:53.485Z,97.57
2022-11-13T07:13:20.646Z,84.50
2022-11-13T07:15:47.728Z,100.47
2022-11-13T07:18:14.901Z,76.40
2022-11-13T07:20:42.088Z,65.87
2022-11-13T07:23:09.269Z,60.67
2022-11-13T07:25:36.361Z,91.37
2022-11-13T07:28:03.575Z,99.73
2022-11-13T07:30:30.650Z,112.33
2022-11-13T07:32:57.711Z,108.30
2022-11-13T07:35:24.824Z,108.37
2022-11-13T07:37:55.596Z,110.10
2022-11-13T07:40:22.794Z,95.20
2022-11-13T07:42:56.902Z,85.17
2022-11-13T07:45:23.981Z,82.33
2022-11-13T07:47:51.075Z,74.23
2022-11-13T07:50:18.225Z,73.67
2022-11-13T07:52:45.297Z,72.73
2022-11-13T07:55:12.377Z,82.07
2022-11-13T07:57:39.527Z,106.90
2022-11-13T08:00:06.916Z,90.33
2022-11-13T08:02:34.031Z,61.73
2022-11-13T08:05:01.160Z,78.87
2022-11-13T08:07:28.254Z,91.73
2022-11-13T08:09:55.352Z,106.37
2022-11-13T08:12:22.499Z,97.03
2022-11-13T08:14:49.567Z,99.27
2022-11-13T08:17:16.675Z,95.87
2022-11-13T08:19:43.781Z,96.43
2022-11-13T08:22:10.861Z,94.80
2022-11-13T08:24:37.934Z,115.37
2022-11-13T08:27:05.054Z,120.90
2022-11-13T08:29:32.171Z,132.13
2022-11-13T08:31:59.253Z,107.03
2022-11-13T08:34:26.376Z,61.03
2022-11-13T08:36:53.447Z,60.67
2022-11-13T08:39:20.519Z,51.87
2022-11-13T08:41:47.704Z,46.83
2022-11-13T08:44:14.889Z,51.80
2022-11-13T08:46:41.973Z,37.83
2022-11-13T08:49:09.172Z,41.40
2022-11-13T08:51:36.316Z,44.43
2022-11-13T08:54:03.393Z,41.77
2022-11-13T08:56:30.600Z,42.90
2022-11-13T08:58:57.665Z,34.47
2022-11-13T09:01:24.752Z,30.37
2022-11-13T09:03:52.043Z,35.73
2022-11-13T09:06:19.209Z,39.05
2022-11-13T09:08:46.284Z,32.15
2022-11-13T09:11:13.398Z,23.73
2022-11-13T09:13:44.986Z,19.67
2022-11-13T09:16:13.676Z,19.67
2022-11-13T09:18:40.829Z,19.33
2022-11-13T09:21:08.113Z,16.55
2022-11-13T09:23:36.129Z,16.38
2022-11-13T09:26:03.372Z,18.52
2022-11-13T09:28:30.774Z,18.63
2022-11-13T09:30:58.240Z,20.80
2022-11-13T09:33:25.334Z,21.13
2022-11-13T09:35:52.720Z,17.40
2022-11-13T09:38:19.830Z,33.08
2022-11-13T09:40:48.484Z,31.73
2022-11-13T09:43:22.588Z,22.65
2022-11-13T09:45:50.108Z,18.88
2022-11-13T09:48:21.484Z,32.55
2022-11-13T09:50:48.580Z,34.95
2022-11-13T09:53:15.652Z,23.80
2022-11-13T09:55:46.088Z,18.65
2022-11-13T09:58:19.343Z,19.88
2022-11-13T10:00:46.506Z,23.83
2022-11-13T10:03:59.816Z,21.15
2022-11-13T10:06:28.352Z,22.05
2022-11-13T10:08:55.451Z,25.23
2022-11-13T10:11:25.822Z,23.27
2022-11-13T10:13:58.802Z,22.48
2022-11-13T10:16:33.332Z,19.95
2022-11-13T10:19:04.639Z,16.38
2022-11-13T10:21:43.954Z,21.67
2022-11-13T10:24:37.634Z,27.17
2022-11-13T10:27:06.246Z,19.70
2022-11-13T10:29:35.080Z,23.50
2022-11-13T10:32:14.075Z,15.48
2022-11-13T10:34:41.179Z,20.17
2022-11-13T10:37:29.307Z,20.65
2022-11-13T10:39:56.423Z,23.27
2022-11-13T10:42:24.668Z,23.00
2022-11-13T10:45:01.217Z,25.75
2022-11-13T10:48:02.107Z,25.13
2022-11-13T10:50:34.253Z,27.50
2022-11-13T10:53:01.337Z,27.73
2022-11-13T10:55:34.670Z,19.58
2022-11-13T10:58:02.414Z,26.27
2022-11-13T11:00:33.591Z,17.73
2022-11-13T11:03:00.716Z,13.88
2022-11-13T11:05:27.953Z,10.77
2022-11-13T11:07:55.834Z,12.13
2022-11-13T11:10:36.296Z,11.02
2022-11-13T11:13:07.160Z,11.30
2022-11-13T11:15:40.680Z,9.98
2022-11-13T11:18:10.676Z,6.95
2022-11-13T11:20:54.496Z,5.13
2022-11-13T11:23:24.890Z,7.30
2022-11-13T11:25:59.207Z,7.05
2022-11-13T11:28:26.470Z,11.82
2022-11-13T11:30:54.344Z,12.93
2022-11-13T11:33:31.524Z,14.77
2022-11-13T11:35:58.580Z,7.47
2022-11-13T11:38:26.788Z,23.10
2022-11-13T11:40:54.889Z,10.60
2022-11-13T11:43:25.092Z,7.47
2022-11-13T11:45:52.251Z,8.98
2022-11-13T11:48:22.944Z,4.72
2022-11-13T11:51:04.549Z,8.35
2022-11-13T11:53:46.724Z,9.15
2022-11-13T11:56:26.099Z,9.25
2022-11-13T11:58:58.595Z,8.77
2022-11-13T12:01:28.666Z,4.45
2022-11-13T12:04:05.658Z,4.97
2022-11-13T12:07:02.320Z,5.00
2022-11-13T12:09:30.444Z,6.65
2022-11-13T12:12:00.758Z,4.72
2022-11-13T12:14:31.557Z,4.93
2022-11-13T12:17:11.867Z,4.38
2022-11-13T12:19:51.509Z,4.70
2022-11-13T12:22:47.927Z,5.93
2022-11-13T12:25:35.312Z,6.70
2022-11-13T12:28:11.536Z,7.88
2022-11-13T12:30:41.470Z,6.20
2022-11-13T12:33:11.350Z,9.60
2022-11-13T12:35:38.847Z,7.53
2022-11-13T12:38:09.075Z,10.23
2022-11-13T12:40:41.221Z,6.72
2022-11-13T12:43:26.480Z,7.50
2022-11-13T12:45:54.333Z,6.78
2022-11-13T12:48:21.435Z,6.25
2022-11-13T12:51:01.900Z,8.60
2022-11-13T12:53:30.513Z,8.87
2022-11-13T12:56:00.273Z,8.88
2022-11-13T12:58:28.810Z,8.52
2022-11-13T13:00:57.793Z,9.75
2022-11-13T13:03:45.249Z,6.70
2022-11-13T13:06:24.276Z,7.80
2022-11-13T13:09:00.287Z,9.25
2022-11-13T13:11:38.241Z,8.10
2022-11-13T13:14:17.203Z,8.73
2022-11-13T13:16:44.268Z,14.57
2022-11-13T13:19:30.385Z,13.40
2022-11-13T13:21:57.517Z,13.25
2022-11-13T13:24:34.512Z,13.23
2022-11-13T13:27:01.642Z,13.95
2022-11-13T13:29:29.300Z,16.33
2022-11-13T13:32:08.645Z,16.73
2022-11-13T13:34:44.355Z,16.58
2022-11-13T13:37:15.180Z,17.58
2022-11-13T13:39:56.266Z,17.52
2022-11-13T13:42:32.343Z,19.27
2022-11-13T13:45:22.338Z,19.73
2022-11-13T13:47:52.394Z,19.58
2022-11-13T13:50:25.039Z,19.80
2022-11-13T13:52:55.812Z,23.15
2022-11-13T13:55:25.708Z,20.05
2022-11-13T13:57:52.804Z,22.85
2022-11-13T14:00:20.065Z,19.98
2022-11-13T14:02:47.905Z,21.60
2022-11-13T14:05:27.009Z,23.17
2022-11-13T14:07:54.096Z,21.40
2022-11-13T14:10:22.218Z,21.85
2022-11-13T14:12:49.537Z,22.83
2022-11-13T14:15:28.818Z,22.85
2022-11-13T14:18:05.540Z,23.02
2022-11-13T14:21:02.099Z,26.55
2022-11-13T14:23:30.776Z,24.05
2022-11-13T14:25:57.838Z,26.23
2022-11-13T14:28:25.668Z,24.75
2022-11-13T14:30:53.686Z,25.92
2022-11-13T14:33:24.884Z,23.08
2022-11-13T14:35:55.565Z,23.38
2022-11-13T14:38:23.648Z,22.33
2022-11-13T14:40:50.801Z,25.85
2022-11-13T14:43:19.738Z,25.23
2022-11-13T14:45:53.625Z,23.98
2022-11-13T14:48:21.758Z,20.92
2022-11-13T14:50:52.747Z,24.27
2022-11-13T14:53:38.763Z,27.58
2022-11-13T14:56:09.098Z,22.05
2022-11-13T14:58:36.923Z,26.75
2022-11-13T15:01:13.930Z,28.52
2022-11-13T15:03:41.070Z,22.63
2022-11-13T15:06:14.227Z,24.13
2022-11-13T15:08:41.365Z,35.47
2022-11-13T15:11:09.142Z,38.13
2022-11-13T15:13:36.253Z,28.58
2022-11-13T15:16:03.374Z,38.38
2022-11-13T15:18:30.476Z,34.28
2022-11-13T15:20:57.596Z,32.20
2022-11-13T15:23:25.453Z,29.30
2022-11-13T15:25:52.703Z,29.02
2022-11-13T15:28:19.805Z,29.48
2022-11-13T15:30:47.024Z,31.40
2022-11-13T15:33:14.598Z,37.20
2022-11-13T15:35:42.904Z,31.45
2022-11-13T15:38:12.718Z,32.60
2022-11-13T15:40:39.830Z,33.53
2022-11-13T15:43:07.238Z,33.15
2022-11-13T15:45:35.459Z,37.10
2022-11-13T15:48:03.913Z,38.47
2022-11-13T15:50:31.051Z,43.08
2022-11-13T15:53:02.377Z,37.28
2022-11-13T15:55:32.303Z,43.17
2022-11-13T15:57:59.428Z,41.15
2022-11-13T16:00:27.281Z,40.55
2022-11-13T16:02:56.103Z,73.07
2022-11-13T16:05:29.103Z,67.53
2022-11-13T16:07:56.749Z,57.50
2022-11-13T16:10:25.194Z,55.65
2022-11-13T16:12:52.770Z,57.33
2022-11-13T16:15:20.013Z,54.28
2022-11-13T16:17:47.762Z,65.53
2022-11-13T16:20:16.586Z,61.42
2022-11-13T16:22:44.011Z,85.22
2022-11-13T16:25:18.470Z,88.68
2022-11-13T16:27:45.570Z,83.07
2022-11-13T16:30:20.696Z,80.07
2022-11-13T16:32:48.025Z,95.47
2022-11-13T16:35:18.755Z,90.47
2022-11-13T16:37:45.922Z,94.88
2022-11-13T16:40:20.515Z,102.43
2022-11-13T16:42:47.922Z,139.73
2022-11-13T16:45:15.095Z,145.13
2022-11-13T16:47:42.201Z,143.85
2022-11-13T16:50:19.669Z,130.60
2022-11-13T16:52:46.779Z,170.07
2022-11-13T16:55:14.061Z,208.20
2022-11-13T16:57:41.207Z,166.60
2022-11-13T17:00:08.902Z,229.40
2022-11-13T17:02:36.072Z,215.87
2022-11-13T17:05:03.205Z,279.43
2022-11-13T17:07:30.374Z,471.23
2022-11-13T17:10:24.317Z,348.77
2022-11-13T17:12:44.806Z,479.73
2022-11-13T17:15:11.912Z,431.63
2022-11-13T17:17:38.992Z,471.03
2022-11-13T17:20:06.322Z,587.23
2022-11-13T17:22:33.394Z,518.23
2022-11-13T17:25:00.497Z,542.63
2022-11-13T17:27:27.610Z,1882.30
2022-11-13T17:29:54.767Z,1022.97
2022-11-13T17:32:21.912Z,806.13
2022-11-13T17:34:49.013Z,832.65
2022-11-13T17:37:17.375Z,562.05
2022-11-13T17:39:45.108Z,547.67
2022-11-13T17:42:12.229Z,586.57
2022-11-13T17:44:39.359Z,533.87
2022-11-13T17:47:06.560Z,585.87
2022-11-13T17:49:34.098Z,524.23
2022-11-13T17:52:01.208Z,474.47
2022-11-13T17:54:29.275Z,522.70
2022-11-13T17:56:56.460Z,455.83
2022-11-13T17:59:23.608Z,443.13
2022-11-13T18:01:50.741Z,459.50
2022-11-13T18:04:17.853Z,412.93
2022-11-13T18:06:45.030Z,482.37
2022-11-13T18:09:12.203Z,495.53
2022-11-13T18:11:39.317Z,473.13
2022-11-13T18:14:06.387Z,571.10
2022-11-13T18:16:34.589Z,557.33
2022-11-13T18:19:03.478Z,480.52
2022-11-13T18:21:31.403Z,513.05
2022-11-13T18:24:02.823Z,513.13
2022-11-13T18:26:30.234Z,550.50
2022-11-13T18:28:57.524Z,452.17
2022-11-13T18:31:24.698Z,507.52
2022-11-13T18:33:51.931Z,526.90
2022-11-13T18:36:19.087Z,578.37
2022-11-13T18:38:46.594Z,474.43
2022-11-13T18:41:15.369Z,545.30
2022-11-13T18:43:45.872Z,388.70
2022-11-13T18:46:13.371Z,404.93
2022-11-13T18:48:40.952Z,448.70
2022-11-13T18:51:11.929Z,394.20
2022-11-13T18:53:39.088Z,361.70
2022-11-13T18:56:07.145Z,382.33
2022-11-13T18:58:38.014Z,297.43
2022-11-13T19:01:11.707Z,331.80
2022-11-13T19:03:41.534Z,309.60
2022-11-13T19:06:18.500Z,294.90
2022-11-13T19:08:45.684Z,295.40
2022-11-13T19:11:14.041Z,286.23
2022-11-13T19:13:41.913Z,355.70
2022-11-13T19:16:12.910Z,279.43
2022-11-13T19:18:40.630Z,277.77
2022-11-13T19:21:08.623Z,276.60
2022-11-13T19:23:35.784Z,283.87
2022-11-13T19:26:03.028Z,287.63
2022-11-13T19:28:30.367Z,277.57
2022-11-13T19:30:57.883Z,253.10
2022-11-13T19:33:25.363Z,216.77
2022-11-13T19:35:53.110Z,204.23
2022-11-13T19:38:20.440Z,207.30
2022-11-13T19:40:48.898Z,224.00
2022-11-13T19:43:15.996Z,244.80
2022-11-13T19:45:43.246Z,234.73
2022-11-13T19:48:17.699Z,267.17
2022-11-13T19:50:47.398Z,388.47
2022-11-13T19:53:15.653Z,417.43
2022-11-13T19:55:42.965Z,372.90
2022-11-13T19:58:10.078Z,322.00
2022-11-13T20:00:37.365Z,281.93
2022-11-13T20:03:07.614Z,292.20
2022-11-13T20:05:35.110Z,380.20
2022-11-13T20:08:02.221Z,387.60
2022-11-13T20:10:29.335Z,334.87
2022-11-13T20:12:56.489Z,339.77
2022-11-13T20:15:24.046Z,359.70
2022-11-13T20:17:51.191Z,356.30
2022-11-13T20:20:18.349Z,360.80
2022-11-13T20:22:45.425Z,442.43
2022-11-13T20:25:12.532Z,369.13
2022-11-13T20:27:43.067Z,359.93
2022-11-13T20:30:13.349Z,304.27
2022-11-13T20:32:40.569Z,319.17
2022-11-13T20:35:08.425Z,260.10
2022-11-13T20:37:35.754Z,294.00
2022-11-13T20:40:02.918Z,271.70
2022-11-13T20:42:29.985Z,362.40
2022-11-13T20:45:00.921Z,335.73
2022-11-13T20:47:28.441Z,352.37
2022-11-13T20:49:55.530Z,288.23
2022-11-13T20:52:22.682Z,331.07
2022-11-13T20:54:49.805Z,336.20
2022-11-13T20:57:18.078Z,329.03
2022-11-13T20:59:45.178Z,299.53
2022-11-13T21:02:12.436Z,341.97
2022-11-13T21:04:39.544Z,327.33
2022-11-13T21:07:06.653Z,281.33
2022-11-13T21:09:33.916Z,269.07
2022-11-13T21:12:01.050Z,253.90
2022-11-13T21:14:28.133Z,247.50
2022-11-13T21:16:55.301Z,250.13
2022-11-13T21:19:22.625Z,203.77
2022-11-13T21:21:49.709Z,204.57
2022-11-13T21:24:16.839Z,223.10
2022-11-13T21:26:44.003Z,193.07
2022-11-13T21:29:11.107Z,201.07
2022-11-13T21:31:38.229Z,215.53
2022-11-13T21:34:05.725Z,186.80
2022-11-13T21:36:32.818Z,188.20
2022-11-13T21:38:59.974Z,237.60
2022-11-13T21:41:27.155Z,200.33
2022-11-13T21:44:02.005Z,265.27
2022-11-13T21:46:35.929Z,253.13
2022-11-13T21:49:03.063Z,226.13
2022-11-13T21:51:30.567Z,203.97
2022-11-13T21:53:57.773Z,193.20
2022-11-13T21:56:26.270Z,311.63
2022-11-13T21:58:53.478Z,292.27
2022-11-13T22:01:20.663Z,398.00
2022-11-13T22:03:47.765Z,274.07
2022-11-13T22:06:24.809Z,293.20
2022-11-13T22:09:01.566Z,262.77
2022-11-13T22:11:29.489Z,259.10
2022-11-13T22:13:56.597Z,221.43
2022-11-13T22:16:23.858Z,252.07
2022-11-13T22:18:54.847Z,198.40
2022-11-13T22:21:22.120Z,218.73
2022-11-13T22:23:49.235Z,223.73
2022-11-13T22:26:16.808Z,247.60
2022-11-13T22:28:44.503Z,210.60
2022-11-13T22:31:15.394Z,224.40
2022-11-13T22:33:47.654Z,299.80
2022-11-13T22:36:16.870Z,233.50
2022-11-13T22:38:44.617Z,215.80
2022-11-13T22:41:12.756Z,237.93
2022-11-13T22:43:40.492Z,275.70
2022-11-13T22:46:08.722Z,245.50
2022-11-13T22:48:36.449Z,243.47
2022-11-13T22:51:14.713Z,301.47
2022-11-13T22:53:42.152Z,314.77
2022-11-13T22:56:11.085Z,276.20
2022-11-13T22:58:38.234Z,226.00
2022-11-13T23:01:08.835Z,250.33
2022-11-13T23:03:39.796Z,278.23
2022-11-13T23:06:07.185Z,204.90
2022-11-13T23:08:38.660Z,191.83
2022-11-13T23:11:06.679Z,222.37
2022-11-13T23:13:33.922Z,215.80
2022-11-13T23:16:01.485Z,190.33
2022-11-13T23:18:32.259Z,176.53
2022-11-13T23:20:59.411Z,219.97
2022-11-13T23:23:26.495Z,195.87
2022-11-13T23:25:53.658Z,163.80
2022-11-13T23:28:20.764Z,156.73
2022-11-13T23:30:47.837Z,166.43
2022-11-13T23:33:14.989Z,167.17
2022-11-13T23:35:42.444Z,131.13
2022-11-13T23:38:09.531Z,109.77
2022-11-13T23:40:36.699Z,134.53
2022-11-13T23:43:03.855Z,162.47
2022-11-13T23:45:31.077Z,154.20
2022-11-13T23:47:58.226Z,171.57
2022-11-13T23:50:25.325Z,207.70
2022-11-13T23:52:52.541Z,204.20
2022-11-13T23:55:21.276Z,224.73
2022-11-13T23:57:48.399Z,194.23
